Time;durP1;ratioP1;P1;durP2;ratioP2;P2;SDS_P1;SDS_P2;PMS_P1;PMS_P2;Temp;Humidity;BMP_temperature;BMP_pressure;BME280_temperature;BME280_humidity;BME280_pressure;Samples;Min_cycle;Max_cycle;Signal;HPM_P1;HPM_P2
2021/12/23 00:00:21;;;;;;;;;;;;;;;-4.49;80.85;101468.16;84509;1333;24344;-74
2021/12/23 00:02:46;;;;;;;59.00;28.30;;;;;;;-4.53;80.96;101460.52;84551;1321;22647;-74
2021/12/23 00:04:55;;;;;;;66.70;32.60;;;;;;;-4.54;80.85;101456.37;84674;1331;22617;-73
2021/12/23 00:07:08;;;;;;;62.30;31.10;;;;;;;-4.55;80.87;101449.16;84558;1331;22596;-72
2021/12/23 00:09:17;;;;;;;68.80;34.30;;;;;;;-4.55;80.91;101445.61;84643;1330;26510;-72
2021/12/23 00:11:26;;;;;;;68.40;32.10;;;;;;;-4.53;81.00;101445.71;84673;1330;22621;-73
2021/12/23 00:13:49;;;;;;;62.00;29.10;;;;;;;-4.51;80.78;101441.20;83915;1330;1003729;-73
2021/12/23 00:16:04;;;;;;;60.20;30.20;;;;;;;-4.48;80.76;101439.79;84572;1330;22610;-73
2021/12/23 00:18:29;;;;;;;67.30;30.70;;;;;;;-4.43;80.87;101439.63;84657;1327;22844;-73
2021/12/23 00:25:28;;;;;;;67.30;31.40;;;;;;;-4.32;80.85;101422.52;84331;1335;22610;-72
2021/12/23 00:27:43;;;;;;;63.90;31.30;;;;;;;-4.31;80.82;101418.29;84337;1332;22616;-76
2021/12/23 00:30:01;;;;;;;66.20;33.80;;;;;;;-4.32;80.74;101414.83;84254;1337;24114;-81
2021/12/23 00:32:11;;;;;;;64.00;30.80;;;;;;;-4.33;80.74;101416.35;84352;1335;24125;-80
2021/12/23 00:34:24;;;;;;;66.10;30.80;;;;;;;-4.34;80.78;101415.43;84366;1335;22693;-82
2021/12/23 00:36:35;;;;;;;60.80;29.30;;;;;;;-4.37;80.71;101416.52;84363;1335;23058;-81
2021/12/23 00:38:49;;;;;;;63.60;30.70;;;;;;;-4.38;80.62;101414.97;84342;1330;22746;-82
2021/12/23 00:41:03;;;;;;;66.30;32.10;;;;;;;-4.37;80.72;101409.54;84335;1333;22621;-76
2021/12/23 00:43:12;;;;;;;66.10;33.00;;;;;;;-4.35;80.62;101407.05;84352;1334;22630;-76
2021/12/23 00:45:21;;;;;;;65.90;31.00;;;;;;;-4.31;80.69;101403.80;84335;1335;22734;-80
2021/12/23 00:47:30;;;;;;;68.80;32.30;;;;;;;-4.28;80.69;101402.73;84355;1333;24268;-79
2021/12/23 00:49:45;;;;;;;70.50;34.20;;;;;;;-4.26;80.72;101398.91;84640;1329;22624;-80
2021/12/23 00:51:57;;;;;;;65.60;31.50;;;;;;;-4.25;80.77;101396.39;84511;1331;22628;-76
2021/12/23 00:54:09;;;;;;;71.50;30.90;;;;;;;-4.24;80.60;101395.71;84641;1332;25080;-76
2021/12/23 00:56:18;;;;;;;62.70;31.90;;;;;;;-4.26;80.43;101394.61;84665;1330;26494;-81
2021/12/23 00:58:27;;;;;;;63.70;31.20;;;;;;;-4.28;80.34;101390.30;84685;1327;22936;-81
2021/12/23 01:00:37;;;;;;;65.00;31.10;;;;;;;-4.29;80.26;101394.20;84585;1324;22580;-81
2021/12/23 01:02:47;;;;;;;60.40;29.60;;;;;;;-4.30;80.42;101392.60;84640;1328;24234;-82
2021/12/23 01:05:00;;;;;;;64.20;31.20;;;;;;;-4.31;80.20;101390.20;84661;1330;23042;-76
2021/12/23 01:07:09;;;;;;;62.20;30.90;;;;;;;-4.31;80.20;101385.42;84667;1332;22669;-76
2021/12/23 01:09:21;;;;;;;61.10;30.80;;;;;;;-4.29;80.36;101380.20;84681;1329;22610;-76
2021/12/23 01:11:30;;;;;;;63.50;31.30;;;;;;;-4.27;80.23;101378.94;84676;1329;22591;-79
2021/12/23 01:13:47;;;;;;;65.50;33.20;;;;;;;-4.25;80.28;101377.12;84591;1330;22760;-81
2021/12/23 01:16:03;;;;;;;59.90;30.40;;;;;;;-4.24;80.36;101374.44;84671;1329;22623;-81
2021/12/23 01:18:19;;;;;;;64.50;30.60;;;;;;;-4.24;80.39;101372.23;83839;1333;1003024;-82
2021/12/23 01:20:35;;;;;;;59.20;28.40;;;;;;;-4.24;80.35;101367.97;84668;1330;23058;-80
2021/12/23 01:22:45;;;;;;;61.60;27.70;;;;;;;-4.25;80.12;101364.35;84649;1330;22635;-81
2021/12/23 01:24:55;;;;;;;59.90;29.50;;;;;;;-4.27;80.15;101367.19;84656;1330;24415;-79
2021/12/23 01:27:06;;;;;;;59.60;30.00;;;;;;;-4.29;80.08;101367.77;84649;1330;22656;-80
2021/12/23 01:29:13;;;;;;;;;;;;;;;-4.32;80.07;101363.05;84674;1330;22942;-81
2021/12/23 01:31:24;;;;;;;56.70;27.30;;;;;;;-4.36;80.09;101365.80;84675;1331;22765;-83
2021/12/23 01:33:36;;;;;;;55.20;26.80;;;;;;;-4.37;80.16;101364.92;84632;1330;22722;-77
2021/12/23 01:35:49;;;;;;;59.60;29.50;;;;;;;-4.36;80.18;101366.81;84675;1331;23924;-88
2021/12/23 01:38:00;;;;;;;60.20;30.10;;;;;;;-4.36;80.27;101360.36;83846;1333;1016080;-80
2021/12/23 01:40:15;;;;;;;60.10;25.20;;;;;;;-4.34;80.34;101357.34;84635;1330;23078;-79
2021/12/23 01:42:25;;;;;;;53.10;23.70;;;;;;;-4.32;80.32;101356.24;84604;1330;22601;-77
2021/12/23 01:44:35;;;;;;;47.00;26.10;;;;;;;-4.29;80.41;101358.23;84654;1330;22643;-81
2021/12/23 01:46:44;;;;;;;52.90;25.70;;;;;;;-4.23;80.34;101356.25;84646;1321;25620;-83
2021/12/23 01:48:57;;;;;;;51.80;25.00;;;;;;;-4.20;80.36;101351.91;84642;1329;25852;-83
2021/12/23 01:51:07;;;;;;;53.40;27.50;;;;;;;-4.20;80.07;101348.52;84677;1330;22606;-83
2021/12/23 01:53:20;;;;;;;54.40;26.30;;;;;;;-4.20;80.03;101344.10;84653;1326;23071;-83
2021/12/23 01:55:29;;;;;;;53.60;25.90;;;;;;;-4.18;80.02;101342.30;83977;1330;1003099;-82
2021/12/23 01:57:42;;;;;;;56.10;25.00;;;;;;;-4.20;79.87;101333.40;84656;1327;22733;-81
2021/12/23 01:59:51;;;;;;;51.50;25.60;;;;;;;-4.23;79.68;101326.93;84579;1335;25312;-78
2021/12/23 02:02:03;;;;;;;49.60;25.10;;;;;;;-4.28;79.57;101325.24;83916;1330;1003877;-77
2021/12/23 02:04:16;;;;;;;53.20;24.60;;;;;;;-4.31;79.58;101320.00;84624;1329;24236;-77
2021/12/23 02:06:27;;;;;;;55.10;26.70;;;;;;;-4.33;79.49;101316.34;84575;1331;22643;-80
2021/12/23 02:08:38;;;;;;;54.60;24.30;;;;;;;-4.35;79.46;101313.71;84651;1329;22603;-77
2021/12/23 02:10:48;;;;;;;51.40;23.00;;;;;;;-4.35;79.57;101307.92;84549;1333;22714;-77
2021/12/23 02:13:03;;;;;;;44.90;23.90;;;;;;;-4.33;79.58;101307.69;84620;1329;24266;-79
2021/12/23 02:15:14;;;;;;;46.40;22.50;;;;;;;-4.31;79.61;101305.54;83921;1330;1002812;-81
2021/12/23 02:17:25;;;;;;;52.30;24.80;;;;;;;-4.29;79.56;101298.77;85084;1329;22777;-81
2021/12/23 02:19:38;;;;;;;51.40;24.60;;;;;;;-4.31;79.39;101299.57;84763;1325;22663;-81
2021/12/23 02:21:49;;;;;;;45.80;23.50;;;;;;;-4.31;79.36;101296.84;84755;1330;25453;-82
2021/12/23 02:24:01;;;;;;;49.20;24.40;;;;;;;-4.30;79.46;101289.73;83990;1330;1002912;-82
2021/12/23 02:26:11;;;;;;;44.60;24.30;;;;;;;-4.31;79.39;101288.16;84661;1330;22595;-75
2021/12/23 02:28:23;;;;;;;;;;;;;;;-4.33;79.27;101280.77;84577;1331;22580;-76
2021/12/23 02:30:38;;;;;;;46.40;23.00;;;;;;;-4.36;79.14;101275.36;84638;1329;22594;-75
2021/12/23 02:32:48;;;;;;;45.90;21.80;;;;;;;-4.40;79.01;101271.48;84643;1330;22603;-75
2021/12/23 02:34:57;;;;;;;48.70;23.90;;;;;;;-4.43;79.03;101269.66;84583;1333;26556;-81
2021/12/23 02:37:09;;;;;;;48.40;22.90;;;;;;;-4.45;78.88;101269.75;84694;1324;22938;-81
2021/12/23 02:39:19;;;;;;;44.30;22.70;;;;;;;-4.46;78.79;101262.21;84678;1330;24928;-81
2021/12/23 02:41:30;;;;;;;40.00;22.30;;;;;;;-4.47;78.78;101259.13;84712;1328;22583;-81
2021/12/23 02:43:44;;;;;;;40.20;20.10;;;;;;;-4.45;78.79;101257.48;84685;1330;22630;-83
2021/12/23 02:45:56;;;;;;;49.10;22.60;;;;;;;-4.43;78.89;101254.17;84653;1330;22639;-80
2021/12/23 02:48:16;;;;;;;45.00;21.60;;;;;;;-4.42;78.90;101255.91;84598;1330;25348;-80
2021/12/23 02:50:25;;;;;;;52.20;23.50;;;;;;;-4.42;78.82;101254.02;84599;1333;26526;-87
2021/12/23 02:52:36;;;;;;;47.80;23.00;;;;;;;-4.44;78.90;101249.37;84603;1331;22870;-81
2021/12/23 02:54:59;;;;;;;47.80;22.10;;;;;;;-4.46;78.75;101248.09;84713;1328;25646;-78
2021/12/23 02:57:09;;;;;;;42.40;21.50;;;;;;;-4.49;78.55;101250.89;84695;1321;22606;-77
2021/12/23 02:59:18;;;;;;;46.40;23.30;;;;;;;-4.55;78.25;101245.88;84684;1329;22604;-77
2021/12/23 03:01:28;;;;;;;38.70;16.20;;;;;;;-4.63;78.33;101243.02;84714;1328;22650;-82
2021/12/23 03:03:42;;;;;;;51.70;23.00;;;;;;;-4.70;78.48;101240.05;84702;1332;24264;-82
2021/12/23 03:05:58;;;;;;;40.90;20.10;;;;;;;-4.75;78.44;101238.17;84698;1329;22586;-76
2021/12/23 03:08:07;;;;;;;44.30;22.00;;;;;;;-4.79;78.50;101239.55;83955;1328;1003092;-73
2021/12/23 03:10:21;;;;;;;48.50;22.60;;;;;;;-4.81;78.52;101237.59;83984;1324;1005913;-79
2021/12/23 03:12:32;;;;;;;66.80;28.60;;;;;;;-4.82;78.67;101238.23;84612;1330;22670;-78
2021/12/23 03:14:44;;;;;;;44.40;20.20;;;;;;;-4.81;78.44;101235.20;84682;1330;22613;-81
2021/12/23 03:16:54;;;;;;;38.60;20.40;;;;;;;-4.80;78.50;101233.52;84699;1330;24963;-78
2021/12/23 03:19:03;;;;;;;45.80;21.70;;;;;;;-4.80;78.61;101232.52;84692;1332;22597;-77
2021/12/23 03:21:13;;;;;;;42.70;22.10;;;;;;;-4.79;78.47;101230.84;84662;1325;22621;-77
2021/12/23 03:23:22;;;;;;;41.30;21.20;;;;;;;-4.79;78.40;101227.94;84464;1332;349467;-78
2021/12/23 03:25:32;;;;;;;43.50;21.00;;;;;;;-4.80;78.51;101223.48;84713;1329;22608;-78
2021/12/23 03:27:43;;;;;;;43.00;22.00;;;;;;;-4.81;78.36;101221.05;84496;1333;22705;-78
2021/12/23 03:29:54;;;;;;;44.40;21.40;;;;;;;-4.84;78.44;101219.42;84580;1335;22586;-84
2021/12/23 03:32:05;;;;;;;49.00;22.00;;;;;;;-4.85;78.41;101218.86;84592;1327;23091;-86
2021/12/23 03:34:18;;;;;;;48.30;22.20;;;;;;;-4.89;78.32;101219.25;84589;1333;22668;-81
2021/12/23 03:36:27;;;;;;;42.60;21.60;;;;;;;-4.94;78.17;101213.61;84748;1330;22633;-78
2021/12/23 03:38:37;;;;;;;41.40;22.00;;;;;;;-4.99;78.28;101211.22;83919;1327;1003044;-77
2021/12/23 03:40:50;;;;;;;41.90;22.60;;;;;;;-5.04;78.35;101206.40;83985;1332;1004207;-77
2021/12/23 03:43:00;;;;;;;42.70;22.40;;;;;;;-5.09;78.41;101202.81;84679;1330;24230;-77
2021/12/23 03:45:12;;;;;;;43.30;22.20;;;;;;;-5.11;78.29;101197.29;84712;1330;22682;-81
2021/12/23 03:47:21;;;;;;;47.30;22.20;;;;;;;-5.12;78.48;101194.69;84702;1330;23927;-81
2021/12/23 03:49:30;;;;;;;45.50;22.90;;;;;;;-5.11;78.40;101191.87;84710;1329;22641;-81
2021/12/23 03:51:40;;;;;;;42.90;21.40;;;;;;;-5.08;78.70;101192.81;84690;1329;22623;-76
2021/12/23 03:53:53;;;;;;;41.90;21.00;;;;;;;-5.03;78.70;101192.49;84710;1329;23927;-76
2021/12/23 03:56:02;;;;;;;44.60;23.30;;;;;;;-5.00;78.72;101188.35;84634;1329;22597;-80
2021/12/23 03:58:12;;;;;;;49.60;23.10;;;;;;;-4.99;78.62;101185.00;84711;1330;22555;-79
2021/12/23 04:00:22;;;;;;;34.60;18.40;;;;;;;-4.97;78.76;101180.83;84015;1330;1003159;-79
2021/12/23 04:02:32;;;;;;;;;;;;;;;-4.95;78.59;101173.73;84730;1329;24258;-79
2021/12/23 04:04:46;;;;;;;43.10;22.20;;;;;;;-4.96;78.83;101173.36;83987;1325;1003143;-78
2021/12/23 04:06:55;;;;;;;48.90;24.00;;;;;;;-4.96;78.64;101165.38;84512;1329;24125;-79
2021/12/23 04:09:04;;;;;;;57.00;25.80;;;;;;;-4.96;78.64;101161.79;84687;1329;24237;-78
2021/12/23 04:11:16;;;;;;;46.70;23.00;;;;;;;-4.97;78.62;101158.88;84710;1330;22596;-79
2021/12/23 04:13:26;;;;;;;49.50;26.70;;;;;;;-4.99;78.63;101151.30;84689;1328;22921;-79
2021/12/23 04:15:36;;;;;;;54.70;26.60;;;;;;;-5.01;78.47;101149.88;84680;1330;25042;-78
2021/12/23 04:17:46;;;;;;;53.40;25.40;;;;;;;-5.02;78.54;101148.14;83995;1329;1003015;-80
2021/12/23 04:20:03;;;;;;;56.10;26.60;;;;;;;-5.00;78.48;101144.45;84589;1335;22903;-78
2021/12/23 04:22:12;;;;;;;49.90;25.20;;;;;;;-4.98;78.49;101141.13;84700;1330;22602;-77
2021/12/23 04:24:22;;;;;;;53.40;25.00;;;;;;;-4.95;78.56;101137.00;84671;1324;22580;-80
2021/12/23 04:26:32;;;;;;;47.00;26.20;;;;;;;-4.90;78.31;101133.09;84588;1329;22604;-83
2021/12/23 04:28:47;;;;;;;51.70;24.30;;;;;;;-4.87;78.34;101131.84;83871;1333;1003686;-77
2021/12/23 04:30:56;;;;;;;51.40;26.20;;;;;;;-4.86;78.42;101124.91;84687;1330;22733;-82
2021/12/23 04:33:05;;;;;;;53.90;26.00;;;;;;;-4.84;78.42;101120.04;84691;1332;22591;-83
2021/12/23 04:35:16;;;;;;;51.40;26.60;;;;;;;-4.84;78.33;101113.55;83940;1329;1003296;-77
2021/12/23 04:37:25;;;;;;;51.70;26.80;;;;;;;-4.85;78.47;101111.30;84688;1330;22615;-77
2021/12/23 04:39:37;;;;;;;57.40;28.50;;;;;;;-4.86;78.42;101111.63;84689;1330;25285;-78
2021/12/23 04:41:49;;;;;;;55.50;26.90;;;;;;;-4.90;78.00;101105.86;84594;1330;24012;-81
2021/12/23 04:43:59;;;;;;;52.50;26.30;;;;;;;-4.97;78.16;101103.05;84006;1330;1003121;-83
2021/12/23 04:46:10;;;;;;;49.40;25.90;;;;;;;-5.03;78.18;101096.72;84597;1331;23184;-82
2021/12/23 04:48:21;;;;;;;55.20;27.40;;;;;;;-5.08;78.13;101094.81;84518;1332;22858;-82
2021/12/23 04:50:29;;;;;;;;;;;;;;;-5.13;78.14;101088.34;84001;1330;1003605;-79
2021/12/23 04:52:39;;;;;;;50.20;24.90;;;;;;;-5.20;78.27;101086.40;84694;1330;22590;-80
2021/12/23 04:54:52;;;;;;;50.80;24.20;;;;;;;-5.24;78.13;101080.47;84649;1328;25517;-75
2021/12/23 04:57:02;;;;;;;55.10;27.80;;;;;;;-5.28;78.31;101075.54;84672;1330;22738;-78
2021/12/23 04:59:12;;;;;;;57.90;29.10;;;;;;;-5.30;78.37;101071.56;84694;1330;22602;-75
2021/12/23 05:01:29;;;;;;;53.50;26.10;;;;;;;-5.28;78.48;101065.34;84692;1329;25969;-81
2021/12/23 05:03:40;;;;;;;50.20;25.00;;;;;;;-5.24;78.55;101062.42;84536;1334;22614;-80
2021/12/23 05:05:51;;;;;;;45.60;24.50;;;;;;;-5.19;78.69;101062.80;84577;1332;22596;-81
2021/12/23 05:08:06;;;;;;;53.70;27.70;;;;;;;-5.13;78.53;101060.62;84579;1328;22620;-81
2021/12/23 05:10:19;;;;;;;52.40;26.40;;;;;;;-5.08;78.40;101057.05;84008;1329;1003183;-81
2021/12/23 05:12:31;;;;;;;54.30;26.60;;;;;;;-5.06;78.38;101053.23;84694;1328;22979;-82
2021/12/23 05:14:40;;;;;;;50.00;26.20;;;;;;;-5.04;78.36;101055.51;84682;1332;25419;-80
2021/12/23 05:16:50;;;;;;;53.20;26.40;;;;;;;-5.02;78.47;101050.46;84667;1326;23965;-81
2021/12/23 05:19:01;;;;;;;51.50;26.90;;;;;;;-5.00;78.17;101051.55;84706;1330;22587;-81
2021/12/23 05:21:10;;;;;;;50.20;26.80;;;;;;;-4.99;78.30;101050.92;84617;1333;25510;-79
2021/12/23 05:23:21;;;;;;;54.10;26.80;;;;;;;-4.99;78.14;101049.06;84647;1330;22589;-79
2021/12/23 05:25:31;;;;;;;48.80;26.10;;;;;;;-4.97;78.25;101045.54;84557;1332;22641;-82
2021/12/23 05:27:42;;;;;;;51.50;26.20;;;;;;;-4.97;78.22;101043.16;84604;1334;22653;-82
2021/12/23 05:29:52;;;;;;;50.10;25.10;;;;;;;-4.98;78.20;101040.77;84723;1329;26080;-79
2021/12/23 05:32:02;;;;;;;54.00;26.30;;;;;;;-4.98;77.93;101037.70;84588;1335;24238;-78
2021/12/23 05:34:12;;;;;;;50.70;25.20;;;;;;;-4.97;77.57;101033.49;84691;1329;24309;-78
2021/12/23 05:36:25;;;;;;;45.90;23.30;;;;;;;-4.93;77.64;101031.91;84666;1330;22624;-79
2021/12/23 05:38:35;;;;;;;60.70;27.60;;;;;;;-4.90;77.70;101027.93;84637;1333;24276;-79
2021/12/23 05:40:48;;;;;;;53.80;25.70;;;;;;;-4.88;77.42;101021.85;83984;1332;1004072;-79
2021/12/23 05:42:58;;;;;;;48.10;24.60;;;;;;;-4.86;77.65;101022.44;83869;1333;1003070;-79
2021/12/23 05:45:12;;;;;;;51.60;25.60;;;;;;;-4.84;77.61;101020.14;84565;1330;22737;-78
2021/12/23 05:47:22;;;;;;;55.90;27.10;;;;;;;-4.82;77.59;101017.16;84573;1330;24279;-78
2021/12/23 05:49:35;;;;;;;53.30;27.40;;;;;;;-4.81;77.58;101019.73;84685;1329;22728;-78
2021/12/23 05:51:45;;;;;;;49.70;25.70;;;;;;;-4.81;77.55;101016.33;83972;1330;1003167;-78
2021/12/23 05:53:58;;;;;;;50.90;26.70;;;;;;;-4.82;77.51;101016.64;84699;1329;22655;-78
2021/12/23 05:56:08;;;;;;;48.50;24.10;;;;;;;-4.83;77.40;101011.48;84708;1330;25443;-78
2021/12/23 05:58:21;;;;;;;47.30;26.10;;;;;;;-4.85;77.50;101011.26;83978;1329;1002626;-77
2021/12/23 06:00:33;;;;;;;48.80;23.60;;;;;;;-4.86;77.65;101012.06;83982;1330;1002989;-78
2021/12/23 06:02:42;;;;;;;49.00;25.20;;;;;;;-4.85;77.53;101008.86;84690;1330;22621;-77
2021/12/23 06:04:52;;;;;;;49.70;25.70;;;;;;;-4.84;77.43;101011.63;83857;1331;1003147;-78
2021/12/23 06:07:03;;;;;;;45.20;24.80;;;;;;;-4.82;77.60;101009.86;84656;1332;22620;-78
2021/12/23 06:09:14;;;;;;;45.20;25.00;;;;;;;-4.79;77.36;101006.52;84689;1325;22597;-78
2021/12/23 06:11:26;;;;;;;52.00;25.60;;;;;;;-4.77;77.39;101004.06;84725;1330;22600;-76
2021/12/23 06:13:36;;;;;;;46.30;24.20;;;;;;;-4.74;77.29;101002.79;84688;1330;22810;-76
2021/12/23 06:15:46;;;;;;;48.40;23.50;;;;;;;-4.73;77.22;101001.31;84022;1324;1003743;-82
2021/12/23 06:18:01;;;;;;;49.70;24.40;;;;;;;-4.73;76.98;100998.91;83957;1330;1003423;-81
2021/12/23 06:20:13;;;;;;;49.80;25.30;;;;;;;-4.75;77.03;100995.27;84616;1332;24064;-76
2021/12/23 06:22:23;;;;;;;57.30;25.90;;;;;;;-4.75;77.18;100988.44;84694;1330;25310;-77
2021/12/23 06:24:33;;;;;;;48.50;24.80;;;;;;;-4.76;77.17;100989.45;84468;1336;26613;-75
2021/12/23 06:26:43;;;;;;;58.20;28.40;;;;;;;-4.76;77.33;100986.55;84703;1329;22590;-76
2021/12/23 06:28:53;;;;;;;50.40;25.70;;;;;;;-4.77;77.14;100984.32;83996;1326;1003877;-76
2021/12/23 06:31:03;;;;;;;47.60;25.00;;;;;;;-4.77;77.41;100985.33;83988;1330;1003712;-82
2021/12/23 06:33:12;;;;;;;53.00;26.10;;;;;;;-4.77;77.19;100981.26;84679;1328;23800;-82
2021/12/23 06:35:27;;;;;;;49.70;25.20;;;;;;;-4.76;77.02;100978.55;83949;1331;1003708;-82
2021/12/23 06:37:37;;;;;;;44.30;22.70;;;;;;;-4.73;77.08;100978.98;84575;1334;22839;-82
2021/12/23 06:39:47;;;;;;;54.90;24.90;;;;;;;-4.70;77.06;100978.58;83863;1334;1003823;-81
2021/12/23 06:41:58;;;;;;;59.80;27.80;;;;;;;-4.67;77.03;100977.34;84690;1329;22604;-81
2021/12/23 06:44:08;;;;;;;51.10;25.00;;;;;;;-4.65;76.78;100976.70;84682;1332;23132;-82
2021/12/23 06:46:16;;;;;;;;;;;;;;;-4.65;76.67;100974.15;83921;1333;1003035;-82
2021/12/23 06:48:29;;;;;;;49.70;24.10;;;;;;;-4.67;76.79;100973.39;84584;1335;22616;-83
2021/12/23 06:50:41;;;;;;;50.60;25.80;;;;;;;-4.66;76.73;100972.41;84684;1330;22692;-76
2021/12/23 06:52:51;;;;;;;51.40;24.50;;;;;;;-4.66;76.86;100973.95;84673;1332;22631;-76
2021/12/23 06:55:05;;;;;;;53.10;26.60;;;;;;;-4.68;76.71;100977.10;84706;1330;22616;-76
2021/12/23 06:57:17;;;;;;;49.00;25.40;;;;;;;-4.70;76.87;100973.65;84576;1324;22844;-76
2021/12/23 06:59:27;;;;;;;50.70;26.10;;;;;;;-4.71;76.79;100977.54;83862;1334;1003900;-77
2021/12/23 07:01:35;;;;;;;;;;;;;;;-4.72;76.72;100974.77;84697;1332;24238;-77
2021/12/23 07:04:04;;;;;;;64.40;31.20;;;;;;;-4.75;76.85;100968.55;83995;1331;1003613;-75
2021/12/23 07:06:18;;;;;;;77.30;34.10;;;;;;;-4.73;76.91;100964.52;83990;1330;1003848;-81
2021/12/23 07:08:30;;;;;;;48.30;26.80;;;;;;;-4.70;76.87;100967.00;84674;1327;22582;-80
2021/12/23 07:10:42;;;;;;;50.00;24.50;;;;;;;-4.68;76.87;100963.00;84717;1329;22691;-82
2021/12/23 07:12:51;;;;;;;45.70;23.30;;;;;;;-4.62;76.72;100961.64;84693;1326;23972;-81
2021/12/23 07:15:05;;;;;;;50.70;24.90;;;;;;;-4.58;76.76;100953.95;84698;1324;22601;-83
2021/12/23 07:17:14;;;;;;;48.60;24.50;;;;;;;-4.54;76.40;100954.58;84596;1334;22675;-84
2021/12/23 07:19:24;;;;;;;52.50;27.30;;;;;;;-4.51;76.20;100948.04;84627;1331;22599;-84
2021/12/23 07:21:33;;;;;;;46.00;23.70;;;;;;;-4.49;76.49;100948.80;84597;1334;22642;-76
2021/12/23 07:23:46;;;;;;;56.20;25.80;;;;;;;-4.47;76.35;100950.56;84577;1335;24298;-76
2021/12/23 07:25:57;;;;;;;48.00;25.00;;;;;;;-4.46;76.10;100949.40;84568;1335;24270;-77
2021/12/23 07:28:08;;;;;;;49.20;24.50;;;;;;;-4.45;76.45;100947.71;84686;1331;22596;-76
2021/12/23 07:30:19;;;;;;;48.20;24.60;;;;;;;-4.45;75.80;100942.62;84688;1332;22622;-81
2021/12/23 07:32:32;;;;;;;46.70;24.90;;;;;;;-4.46;76.08;100938.52;84615;1334;22666;-82
2021/12/23 07:34:43;;;;;;;54.60;25.00;;;;;;;-4.47;75.90;100939.33;84710;1332;22835;-80
2021/12/23 07:36:57;;;;;;;55.90;27.60;;;;;;;-4.49;75.70;100938.73;84505;1335;22641;-80
2021/12/23 07:39:08;;;;;;;48.60;24.70;;;;;;;-4.49;75.92;100929.03;84630;1330;25295;-80
2021/12/23 07:41:18;;;;;;;53.00;24.30;;;;;;;-4.47;75.88;100927.77;84604;1333;25404;-82
2021/12/23 07:43:55;;;;;;;47.30;25.20;;;;;;;-4.44;76.02;100921.54;84578;1330;24122;-80
2021/12/23 07:46:04;;;;;;;48.50;23.90;;;;;;;-4.38;75.66;100922.74;84594;1331;22599;-75
2021/12/23 07:48:14;;;;;;;52.70;26.10;;;;;;;-4.32;75.69;100920.71;84676;1332;22586;-79
2021/12/23 07:50:25;;;;;;;54.30;24.40;;;;;;;-4.29;75.66;100920.64;84485;1335;22717;-73
2021/12/23 07:52:38;;;;;;;55.20;27.10;;;;;;;-4.25;75.24;100913.95;83986;1329;1003698;-77
2021/12/23 07:54:47;;;;;;;55.10;25.30;;;;;;;-4.23;75.25;100916.58;84707;1329;23803;-77
2021/12/23 07:56:59;;;;;;;55.10;26.00;;;;;;;-4.21;74.77;100912.38;84715;1330;22841;-78
2021/12/23 07:59:08;;;;;;;52.20;26.60;;;;;;;-4.20;75.40;100910.70;84593;1327;22599;-78
2021/12/23 08:01:22;;;;;;;56.50;27.80;;;;;;;-4.17;75.24;100909.43;83978;1332;1003033;-78
2021/12/23 08:03:33;;;;;;;52.90;29.20;;;;;;;-4.14;75.06;100909.84;84645;1329;22613;-78
2021/12/23 08:05:42;;;;;;;51.90;25.60;;;;;;;-4.11;75.22;100902.42;84703;1328;22801;-77
2021/12/23 08:07:54;;;;;;;58.20;27.30;;;;;;;-4.09;75.42;100902.33;83960;1332;1003033;-78
2021/12/23 08:10:03;;;;;;;55.00;26.90;;;;;;;-4.07;75.04;100899.33;84650;1333;24313;-72
2021/12/23 08:12:14;;;;;;;53.30;26.50;;;;;;;-4.06;74.90;100896.47;84685;1331;22593;-77
2021/12/23 08:14:24;;;;;;;53.00;25.90;;;;;;;-4.03;75.28;100891.10;84654;1327;22723;-77
2021/12/23 08:16:36;;;;;;;57.80;26.30;;;;;;;-3.99;75.10;100889.86;84707;1330;24445;-77
2021/12/23 08:18:48;;;;;;;52.50;24.80;;;;;;;-3.94;74.54;100883.33;84677;1328;22922;-78
2021/12/23 08:21:01;;;;;;;56.10;26.30;;;;;;;-3.91;74.61;100877.81;84590;1335;23144;-77
2021/12/23 08:23:11;;;;;;;55.40;27.70;;;;;;;-3.84;74.95;100875.45;84709;1332;22583;-78
2021/12/23 08:25:23;;;;;;;49.60;26.50;;;;;;;-3.77;75.04;100874.77;84703;1324;22589;-79
2021/12/23 08:27:34;;;;;;;59.50;27.60;;;;;;;-3.71;74.42;100871.73;84763;1330;22601;-76
2021/12/23 08:29:44;;;;;;;53.60;25.90;;;;;;;-3.66;74.66;100869.98;84617;1332;22889;-75
2021/12/23 08:31:56;;;;;;;55.00;26.80;;;;;;;-3.62;74.30;100868.73;83976;1332;1002969;-68
2021/12/23 08:34:07;;;;;;;55.90;27.20;;;;;;;-3.59;74.30;100864.20;84696;1321;22794;-79
2021/12/23 08:36:20;;;;;;;58.70;27.70;;;;;;;-3.54;73.88;100864.35;84729;1321;22722;-79
2021/12/23 08:38:30;;;;;;;52.40;25.30;;;;;;;-3.53;73.85;100859.60;84702;1328;25336;-78
2021/12/23 08:40:41;;;;;;;;;;;;;;;-3.51;74.04;100854.70;84709;1330;22603;-78
2021/12/23 08:42:51;;;;;;;54.90;27.30;;;;;;;-3.49;73.78;100856.80;84679;1329;22600;-76
2021/12/23 08:45:05;;;;;;;55.70;28.80;;;;;;;-3.48;73.54;100847.97;84685;1328;25359;-79
2021/12/23 08:47:14;;;;;;;53.00;26.30;;;;;;;-3.48;73.45;100846.77;83998;1331;1002927;-78
2021/12/23 08:49:28;;;;;;;60.00;26.60;;;;;;;-3.45;73.77;100844.45;84680;1328;22658;-79
2021/12/23 08:51:41;;;;;;;58.20;29.50;;;;;;;-3.42;73.75;100840.27;84697;1332;22616;-78
2021/12/23 08:53:51;;;;;;;61.10;28.90;;;;;;;-3.40;73.40;100833.53;84681;1332;22618;-79
2021/12/23 08:56:01;;;;;;;63.30;28.10;;;;;;;-3.36;73.52;100835.14;84005;1325;1003198;-78
2021/12/23 08:58:11;;;;;;;53.60;26.00;;;;;;;-3.31;73.31;100828.95;84672;1332;22632;-71
2021/12/23 09:00:26;;;;;;;49.80;26.70;;;;;;;-3.25;73.15;100827.91;83984;1332;1003610;-73
2021/12/23 09:02:36;;;;;;;50.20;25.90;;;;;;;-3.20;72.99;100821.57;84664;1329;23959;-73
2021/12/23 09:04:48;;;;;;;59.00;28.20;;;;;;;-3.15;73.17;100821.67;84692;1331;24276;-74
2021/12/23 09:07:00;;;;;;;49.60;26.10;;;;;;;-3.11;72.68;100821.60;84667;1332;22743;-74
2021/12/23 09:09:09;;;;;;;51.40;26.60;;;;;;;-3.07;73.05;100820.50;84690;1329;22822;-72
2021/12/23 09:11:18;;;;;;;;;;;;;;;-3.01;72.90;100819.46;84718;1331;23929;-73
2021/12/23 09:13:31;;;;;;;54.60;27.70;;;;;;;-3.01;72.38;100815.52;84672;1330;22619;-73
2021/12/23 09:15:40;;;;;;;53.00;26.80;;;;;;;-2.99;72.69;100812.35;84676;1329;22827;-73
2021/12/23 09:17:50;;;;;;;61.80;29.70;;;;;;;-2.94;72.66;100815.37;84676;1329;25958;-72
2021/12/23 09:19:59;;;;;;;53.80;28.80;;;;;;;-2.90;72.59;100811.02;84576;1331;25324;-73
2021/12/23 09:22:09;;;;;;;60.90;28.20;;;;;;;-2.87;72.20;100804.42;84655;1329;22949;-71
2021/12/23 09:24:22;;;;;;;54.50;28.60;;;;;;;-2.85;71.83;100801.41;84570;1333;22728;-73
2021/12/23 09:26:35;;;;;;;60.70;28.70;;;;;;;-2.85;71.98;100794.77;84688;1330;25307;-73
2021/12/23 09:28:58;;;;;;;55.90;28.30;;;;;;;-2.81;71.76;100788.17;83963;1329;1003060;-73
2021/12/23 09:33:42;;;;;;;59.60;28.80;;;;;;;-2.78;71.93;100783.46;84559;1333;22669;-74
2021/12/23 09:35:51;;;;;;;58.30;28.30;;;;;;;-2.75;71.38;100780.65;84698;1332;22616;-72
2021/12/23 09:38:01;;;;;;;63.10;31.50;;;;;;;-2.73;70.79;100777.78;84650;1324;22717;-71
2021/12/23 09:40:13;;;;;;;55.00;28.60;;;;;;;-2.73;71.41;100776.92;84694;1332;22727;-72
2021/12/23 09:42:28;;;;;;;61.10;29.60;;;;;;;-2.66;71.62;100770.25;84694;1330;24404;-75
2021/12/23 09:53:30;;;;;;;53.50;27.50;;;;;;;-2.51;71.46;100758.45;84167;1336;24261;-72
2021/12/23 09:56:15;;;;;;;48.70;25.70;;;;;;;-2.46;71.31;100753.08;84436;1338;23995;-74
2021/12/23 09:58:25;;;;;;;62.90;28.50;;;;;;;-2.43;70.99;100749.71;84456;1333;22605;-74
2021/12/23 10:00:45;;;;;;;49.50;26.40;;;;;;;-2.40;70.58;100752.54;84469;1333;22671;-72
2021/12/23 10:02:54;;;;;;;51.90;27.60;;;;;;;-2.38;70.60;100750.85;84389;1327;22633;-73
2021/12/23 10:05:03;;;;;;;57.20;28.10;;;;;;;-2.40;69.89;100745.70;84437;1338;24030;-74
2021/12/23 10:07:13;;;;;;;58.60;28.20;;;;;;;-2.42;70.24;100741.03;83709;1337;1003888;-74
2021/12/23 10:09:38;;;;;;;55.30;25.70;;;;;;;-2.42;70.23;100735.05;84442;1334;22717;-73
2021/12/23 10:12:22;;;;;;;50.90;25.90;;;;;;;-2.40;70.06;100732.55;83752;1332;1003138;-72
2021/12/23 10:27:40;;;;;;;59.80;27.50;;;;;;;-1.88;69.56;100707.03;84669;1329;23873;-71